sensor_id;sensor_type;location;lat;lon;timestamp;P1;durP1;ratioP1;P2;durP2;ratioP2
60318;SDS011;46163;52.306;5.634;2023-10-19T00:01:21;3.88;;;3.50;;
60318;SDS011;46163;52.306;5.634;2023-10-19T00:03:51;4.15;;;3.22;;
60318;SDS011;46163;52.306;5.634;2023-10-19T00:06:18;3.90;;;3.28;;
60318;SDS011;46163;52.306;5.634;2023-10-19T00:08:44;3.55;;;3.25;;
60318;SDS011;46163;52.306;5.634;2023-10-19T00:11:09;4.88;;;3.42;;
60318;SDS011;46163;52.306;5.634;2023-10-19T00:13:46;3.08;;;2.78;;
60318;SDS011;46163;52.306;5.634;2023-10-19T00:16:16;3.15;;;2.88;;
60318;SDS011;46163;52.306;5.634;2023-10-19T00:18:42;3.47;;;3.17;;
60318;SDS011;46163;52.306;5.634;2023-10-19T00:21:08;3.72;;;2.88;;
60318;SDS011;46163;52.306;5.634;2023-10-19T00:23:37;3.35;;;2.92;;
60318;SDS011;46163;52.306;5.634;2023-10-19T00:26:04;3.45;;;3.15;;
60318;SDS011;46163;52.306;5.634;2023-10-19T00:28:33;3.53;;;3.22;;
60318;SDS011;46163;52.306;5.634;2023-10-19T00:31:01;3.40;;;3.10;;
60318;SDS011;46163;52.306;5.634;2023-10-19T00:33:33;3.67;;;3.30;;
60318;SDS011;46163;52.306;5.634;2023-10-19T00:36:04;5.10;;;4.55;;
60318;SDS011;46163;52.306;5.634;2023-10-19T00:38:41;5.30;;;4.68;;
60318;SDS011;46163;52.306;5.634;2023-10-19T00:41:13;6.40;;;4.75;;
60318;SDS011;46163;52.306;5.634;2023-10-19T00:43:44;5.32;;;4.65;;
60318;SDS011;46163;52.306;5.634;2023-10-19T00:46:16;5.65;;;5.03;;
60318;SDS011;46163;52.306;5.634;2023-10-19T00:51:21;6.07;;;5.35;;
60318;SDS011;46163;52.306;5.634;2023-10-19T00:53:57;6.53;;;5.18;;
60318;SDS011;46163;52.306;5.634;2023-10-19T00:56:26;6.47;;;5.70;;
60318;SDS011;46163;52.306;5.634;2023-10-19T00:58:56;6.30;;;5.63;;
60318;SDS011;46163;52.306;5.634;2023-10-19T01:01:26;7.40;;;5.40;;
60318;SDS011;46163;52.306;5.634;2023-10-19T01:03:56;6.95;;;6.30;;
60318;SDS011;46163;52.306;5.634;2023-10-19T01:06:23;6.72;;;5.93;;
60318;SDS011;46163;52.306;5.634;2023-10-19T01:08:50;5.28;;;4.78;;
60318;SDS011;46163;52.306;5.634;2023-10-19T01:11:17;7.17;;;6.50;;
60318;SDS011;46163;52.306;5.634;2023-10-19T01:13:47;6.38;;;5.75;;
60318;SDS011;46163;52.306;5.634;2023-10-19T01:16:17;6.85;;;6.10;;
60318;SDS011;46163;52.306;5.634;2023-10-19T01:18:46;5.57;;;5.07;;
60318;SDS011;46163;52.306;5.634;2023-10-19T01:21:13;4.45;;;4.05;;
60318;SDS011;46163;52.306;5.634;2023-10-19T01:23:44;6.82;;;6.15;;
60318;SDS011;46163;52.306;5.634;2023-10-19T01:26:11;7.10;;;5.80;;
60318;SDS011;46163;52.306;5.634;2023-10-19T01:28:43;7.68;;;6.55;;
60318;SDS011;46163;52.306;5.634;2023-10-19T01:31:13;6.90;;;6.20;;
60318;SDS011;46163;52.306;5.634;2023-10-19T01:33:41;7.28;;;6.57;;
60318;SDS011;46163;52.306;5.634;2023-10-19T01:36:08;11.57;;;7.45;;
60318;SDS011;46163;52.306;5.634;2023-10-19T01:41:01;12.15;;;7.38;;
60318;SDS011;46163;52.306;5.634;2023-10-19T01:43:44;7.45;;;6.65;;
60318;SDS011;46163;52.306;5.634;2023-10-19T01:46:14;8.20;;;7.25;;
60318;SDS011;46163;52.306;5.634;2023-10-19T01:48:51;7.80;;;7.00;;
60318;SDS011;46163;52.306;5.634;2023-10-19T01:51:20;8.07;;;7.28;;
60318;SDS011;46163;52.306;5.634;2023-10-19T01:53:50;7.82;;;6.82;;
60318;SDS011;46163;52.306;5.634;2023-10-19T01:56:16;8.15;;;7.35;;
60318;SDS011;46163;52.306;5.634;2023-10-19T02:01:13;8.25;;;7.40;;
60318;SDS011;46163;52.306;5.634;2023-10-19T02:03:45;9.00;;;8.07;;
60318;SDS011;46163;52.306;5.634;2023-10-19T02:06:14;10.98;;;8.48;;
60318;SDS011;46163;52.306;5.634;2023-10-19T02:11:56;9.32;;;8.30;;
60318;SDS011;46163;52.306;5.634;2023-10-19T02:14:23;8.80;;;7.95;;
60318;SDS011;46163;52.306;5.634;2023-10-19T02:16:54;11.02;;;9.85;;
60318;SDS011;46163;52.306;5.634;2023-10-19T02:19:25;9.98;;;8.20;;
60318;SDS011;46163;52.306;5.634;2023-10-19T02:21:53;9.85;;;8.32;;
60318;SDS011;46163;52.306;5.634;2023-10-19T02:24:23;12.40;;;9.52;;
60318;SDS011;46163;52.306;5.634;2023-10-19T02:26:52;11.37;;;10.17;;
60318;SDS011;46163;52.306;5.634;2023-10-19T02:29:22;10.38;;;9.27;;
60318;SDS011;46163;52.306;5.634;2023-10-19T02:31:47;10.05;;;9.02;;
60318;SDS011;46163;52.306;5.634;2023-10-19T02:34:14;11.48;;;9.82;;
60318;SDS011;46163;52.306;5.634;2023-10-19T02:39:08;8.25;;;7.45;;
60318;SDS011;46163;52.306;5.634;2023-10-19T02:41:39;9.80;;;8.70;;
60318;SDS011;46163;52.306;5.634;2023-10-19T02:44:16;9.68;;;8.65;;
60318;SDS011;46163;52.306;5.634;2023-10-19T02:46:50;10.57;;;9.23;;
60318;SDS011;46163;52.306;5.634;2023-10-19T02:49:19;8.95;;;8.02;;
60318;SDS011;46163;52.306;5.634;2023-10-19T02:51:49;11.53;;;8.87;;
60318;SDS011;46163;52.306;5.634;2023-10-19T02:54:19;12.23;;;9.40;;
60318;SDS011;46163;52.306;5.634;2023-10-19T02:56:53;9.38;;;8.35;;
60318;SDS011;46163;52.306;5.634;2023-10-19T02:59:22;9.05;;;8.15;;
60318;SDS011;46163;52.306;5.634;2023-10-19T03:01:52;9.75;;;8.75;;
60318;SDS011;46163;52.306;5.634;2023-10-19T03:04:27;11.73;;;9.57;;
60318;SDS011;46163;52.306;5.634;2023-10-19T03:06:55;8.68;;;7.75;;
60318;SDS011;46163;52.306;5.634;2023-10-19T03:09:21;8.88;;;8.02;;
60318;SDS011;46163;52.306;5.634;2023-10-19T03:11:48;9.50;;;8.60;;
60318;SDS011;46163;52.306;5.634;2023-10-19T03:14:18;8.68;;;7.85;;
60318;SDS011;46163;52.306;5.634;2023-10-19T03:16:50;9.60;;;8.35;;
60318;SDS011;46163;52.306;5.634;2023-10-19T03:19:15;8.93;;;8.02;;
60318;SDS011;46163;52.306;5.634;2023-10-19T03:21:43;8.88;;;7.85;;
60318;SDS011;46163;52.306;5.634;2023-10-19T03:24:11;8.45;;;7.60;;
60318;SDS011;46163;52.306;5.634;2023-10-19T03:26:58;8.73;;;7.75;;
60318;SDS011;46163;52.306;5.634;2023-10-19T03:29:24;8.48;;;7.68;;
60318;SDS011;46163;52.306;5.634;2023-10-19T03:31:57;8.02;;;7.20;;
60318;SDS011;46163;52.306;5.634;2023-10-19T03:34:24;9.20;;;7.13;;
60318;SDS011;46163;52.306;5.634;2023-10-19T03:36:52;9.43;;;8.18;;
60318;SDS011;46163;52.306;5.634;2023-10-19T03:39:17;8.63;;;7.70;;
60318;SDS011;46163;52.306;5.634;2023-10-19T03:41:43;11.32;;;7.57;;
60318;SDS011;46163;52.306;5.634;2023-10-19T03:44:12;7.80;;;7.05;;
60318;SDS011;46163;52.306;5.634;2023-10-19T03:46:51;9.45;;;7.72;;
60318;SDS011;46163;52.306;5.634;2023-10-19T03:49:24;8.73;;;7.15;;
60318;SDS011;46163;52.306;5.634;2023-10-19T03:51:55;9.02;;;7.55;;
60318;SDS011;46163;52.306;5.634;2023-10-19T03:54:27;9.80;;;7.45;;
60318;SDS011;46163;52.306;5.634;2023-10-19T03:56:53;11.85;;;7.03;;
60318;SDS011;46163;52.306;5.634;2023-10-19T03:59:26;9.35;;;7.88;;
60318;SDS011;46163;52.306;5.634;2023-10-19T04:02:07;7.68;;;6.68;;
60318;SDS011;46163;52.306;5.634;2023-10-19T04:04:41;9.15;;;7.15;;
60318;SDS011;46163;52.306;5.634;2023-10-19T04:07:13;7.80;;;6.70;;
60318;SDS011;46163;52.306;5.634;2023-10-19T04:09:45;8.13;;;7.25;;
60318;SDS011;46163;52.306;5.634;2023-10-19T04:12:34;8.35;;;6.65;;
60318;SDS011;46163;52.306;5.634;2023-10-19T04:15:04;10.27;;;7.28;;
60318;SDS011;46163;52.306;5.634;2023-10-19T04:17:44;8.75;;;6.40;;
60318;SDS011;46163;52.306;5.634;2023-10-19T04:20:11;6.32;;;5.72;;
60318;SDS011;46163;52.306;5.634;2023-10-19T04:22:44;7.20;;;6.13;;
60318;SDS011;46163;52.306;5.634;2023-10-19T04:25:09;7.20;;;6.50;;
60318;SDS011;46163;52.306;5.634;2023-10-19T04:27:38;8.70;;;6.57;;
60318;SDS011;46163;52.306;5.634;2023-10-19T04:30:08;6.72;;;6.05;;
60318;SDS011;46163;52.306;5.634;2023-10-19T04:35:35;5.85;;;5.10;;
60318;SDS011;46163;52.306;5.634;2023-10-19T04:38:06;5.70;;;5.18;;
60318;SDS011;46163;52.306;5.634;2023-10-19T04:40:31;5.65;;;5.15;;
60318;SDS011;46163;52.306;5.634;2023-10-19T04:42:57;6.03;;;5.43;;
60318;SDS011;46163;52.306;5.634;2023-10-19T04:45:30;5.63;;;5.03;;
60318;SDS011;46163;52.306;5.634;2023-10-19T04:47:56;6.45;;;5.53;;
60318;SDS011;46163;52.306;5.634;2023-10-19T04:50:22;5.68;;;5.13;;
60318;SDS011;46163;52.306;5.634;2023-10-19T04:52:48;12.77;;;5.03;;
60318;SDS011;46163;52.306;5.634;2023-10-19T04:55:13;5.68;;;4.70;;
60318;SDS011;46163;52.306;5.634;2023-10-19T04:57:39;5.13;;;4.63;;
60318;SDS011;46163;52.306;5.634;2023-10-19T05:00:04;4.90;;;4.40;;
60318;SDS011;46163;52.306;5.634;2023-10-19T05:02:30;5.38;;;4.53;;
60318;SDS011;46163;52.306;5.634;2023-10-19T05:04:56;5.95;;;4.40;;
60318;SDS011;46163;52.306;5.634;2023-10-19T05:07:21;4.75;;;4.25;;
60318;SDS011;46163;52.306;5.634;2023-10-19T05:09:47;7.90;;;4.90;;
60318;SDS011;46163;52.306;5.634;2023-10-19T05:12:15;5.47;;;4.60;;
60318;SDS011;46163;52.306;5.634;2023-10-19T05:14:41;6.03;;;4.25;;
60318;SDS011;46163;52.306;5.634;2023-10-19T05:17:10;7.35;;;4.18;;
60318;SDS011;46163;52.306;5.634;2023-10-19T05:19:37;6.10;;;4.40;;
60318;SDS011;46163;52.306;5.634;2023-10-19T05:22:04;5.18;;;4.15;;
60318;SDS011;46163;52.306;5.634;2023-10-19T05:24:31;8.57;;;3.80;;
60318;SDS011;46163;52.306;5.634;2023-10-19T05:26:57;7.60;;;4.38;;
60318;SDS011;46163;52.306;5.634;2023-10-19T05:29:23;4.63;;;3.75;;
60318;SDS011;46163;52.306;5.634;2023-10-19T05:31:50;5.68;;;3.95;;
60318;SDS011;46163;52.306;5.634;2023-10-19T05:34:21;5.78;;;3.83;;
60318;SDS011;46163;52.306;5.634;2023-10-19T05:36:49;5.53;;;3.78;;
60318;SDS011;46163;52.306;5.634;2023-10-19T05:39:19;5.38;;;3.38;;
60318;SDS011;46163;52.306;5.634;2023-10-19T05:41:52;4.93;;;3.55;;
60318;SDS011;46163;52.306;5.634;2023-10-19T05:44:19;3.83;;;3.17;;
60318;SDS011;46163;52.306;5.634;2023-10-19T05:46:44;7.22;;;3.80;;
60318;SDS011;46163;52.306;5.634;2023-10-19T05:49:11;4.33;;;3.23;;
60318;SDS011;46163;52.306;5.634;2023-10-19T05:51:38;4.15;;;3.10;;
60318;SDS011;46163;52.306;5.634;2023-10-19T05:54:04;4.45;;;3.28;;
60318;SDS011;46163;52.306;5.634;2023-10-19T05:56:33;3.47;;;2.80;;
60318;SDS011;46163;52.306;5.634;2023-10-19T05:59:01;5.80;;;2.60;;
60318;SDS011;46163;52.306;5.634;2023-10-19T06:01:27;4.22;;;2.53;;
60318;SDS011;46163;52.306;5.634;2023-10-19T06:03:53;2.40;;;2.10;;
60318;SDS011;46163;52.306;5.634;2023-10-19T06:06:19;3.50;;;2.63;;
60318;SDS011;46163;52.306;5.634;2023-10-19T06:08:46;2.80;;;2.60;;
60318;SDS011;46163;52.306;5.634;2023-10-19T06:11:11;5.88;;;2.78;;
60318;SDS011;46163;52.306;5.634;2023-10-19T06:13:37;2.90;;;2.60;;
60318;SDS011;46163;52.306;5.634;2023-10-19T06:16:03;8.90;;;2.88;;
60318;SDS011;46163;52.306;5.634;2023-10-19T06:18:29;2.35;;;2.15;;
60318;SDS011;46163;52.306;5.634;2023-10-19T06:20:55;2.80;;;2.50;;
60318;SDS011;46163;52.306;5.634;2023-10-19T06:23:21;2.95;;;2.08;;
60318;SDS011;46163;52.306;5.634;2023-10-19T06:25:46;4.38;;;2.50;;
60318;SDS011;46163;52.306;5.634;2023-10-19T06:28:12;2.78;;;2.28;;
60318;SDS011;46163;52.306;5.634;2023-10-19T06:30:38;2.20;;;1.98;;
60318;SDS011;46163;52.306;5.634;2023-10-19T06:33:05;3.20;;;2.20;;
60318;SDS011;46163;52.306;5.634;2023-10-19T06:35:31;2.85;;;2.20;;
60318;SDS011;46163;52.306;5.634;2023-10-19T06:37:58;3.15;;;2.40;;
60318;SDS011;46163;52.306;5.634;2023-10-19T06:40:25;2.35;;;2.10;;
60318;SDS011;46163;52.306;5.634;2023-10-19T06:42:52;2.67;;;2.20;;
60318;SDS011;46163;52.306;5.634;2023-10-19T06:45:23;2.70;;;2.50;;
60318;SDS011;46163;52.306;5.634;2023-10-19T06:47:55;3.92;;;2.38;;
60318;SDS011;46163;52.306;5.634;2023-10-19T06:50:21;4.35;;;2.00;;
60318;SDS011;46163;52.306;5.634;2023-10-19T06:52:48;3.25;;;2.28;;
60318;SDS011;46163;52.306;5.634;2023-10-19T06:55:15;2.53;;;2.33;;
60318;SDS011;46163;52.306;5.634;2023-10-19T06:57:47;3.58;;;2.22;;
60318;SDS011;46163;52.306;5.634;2023-10-19T07:00:15;2.30;;;2.10;;
60318;SDS011;46163;52.306;5.634;2023-10-19T07:02:45;4.70;;;2.53;;
60318;SDS011;46163;52.306;5.634;2023-10-19T07:05:12;4.07;;;2.28;;
60318;SDS011;46163;52.306;5.634;2023-10-19T07:07:43;2.38;;;2.15;;
60318;SDS011;46163;52.306;5.634;2023-10-19T07:10:10;5.53;;;2.40;;
60318;SDS011;46163;52.306;5.634;2023-10-19T07:12:40;3.75;;;2.35;;
60318;SDS011;46163;52.306;5.634;2023-10-19T07:15:08;3.83;;;2.65;;
60318;SDS011;46163;52.306;5.634;2023-10-19T07:17:38;3.47;;;2.58;;
60318;SDS011;46163;52.306;5.634;2023-10-19T07:20:05;2.45;;;2.22;;
60318;SDS011;46163;52.306;5.634;2023-10-19T07:22:52;4.57;;;2.70;;
60318;SDS011;46163;52.306;5.634;2023-10-19T07:25:19;7.68;;;2.63;;
60318;SDS011;46163;52.306;5.634;2023-10-19T07:27:50;4.18;;;2.70;;
60318;SDS011;46163;52.306;5.634;2023-10-19T07:30:18;5.97;;;2.92;;
60318;SDS011;46163;52.306;5.634;2023-10-19T07:32:51;8.55;;;2.83;;
60318;SDS011;46163;52.306;5.634;2023-10-19T07:35:23;3.72;;;2.45;;
60318;SDS011;46163;52.306;5.634;2023-10-19T07:37:52;3.85;;;2.45;;
60318;SDS011;46163;52.306;5.634;2023-10-19T07:40:19;4.50;;;2.97;;
60318;SDS011;46163;52.306;5.634;2023-10-19T07:42:45;2.85;;;2.40;;
60318;SDS011;46163;52.306;5.634;2023-10-19T07:45:11;6.10;;;2.40;;
60318;SDS011;46163;52.306;5.634;2023-10-19T07:47:40;3.90;;;2.55;;
60318;SDS011;46163;52.306;5.634;2023-10-19T07:50:10;3.78;;;2.47;;
60318;SDS011;46163;52.306;5.634;2023-10-19T07:52:41;5.00;;;2.25;;
60318;SDS011;46163;52.306;5.634;2023-10-19T07:55:11;4.82;;;2.80;;
60318;SDS011;46163;52.306;5.634;2023-10-19T07:57:39;4.65;;;2.70;;
60318;SDS011;46163;52.306;5.634;2023-10-19T08:00:10;3.65;;;2.65;;
60318;SDS011;46163;52.306;5.634;2023-10-19T08:02:40;2.53;;;2.33;;
60318;SDS011;46163;52.306;5.634;2023-10-19T08:05:07;3.15;;;2.33;;
60318;SDS011;46163;52.306;5.634;2023-10-19T08:07:33;3.05;;;2.40;;
60318;SDS011;46163;52.306;5.634;2023-10-19T08:10:04;3.13;;;2.60;;
60318;SDS011;46163;52.306;5.634;2023-10-19T08:12:31;11.13;;;2.40;;
60318;SDS011;46163;52.306;5.634;2023-10-19T08:14:58;5.72;;;2.50;;
60318;SDS011;46163;52.306;5.634;2023-10-19T08:17:24;5.53;;;2.40;;
60318;SDS011;46163;52.306;5.634;2023-10-19T08:19:50;2.47;;;2.25;;
60318;SDS011;46163;52.306;5.634;2023-10-19T08:22:16;4.68;;;2.67;;
60318;SDS011;46163;52.306;5.634;2023-10-19T08:24:41;5.57;;;2.58;;
60318;SDS011;46163;52.306;5.634;2023-10-19T08:27:11;3.35;;;2.28;;
60318;SDS011;46163;52.306;5.634;2023-10-19T08:29:39;2.80;;;2.50;;
60318;SDS011;46163;52.306;5.634;2023-10-19T08:32:05;2.97;;;2.20;;
60318;SDS011;46163;52.306;5.634;2023-10-19T08:34:35;6.57;;;3.03;;
60318;SDS011;46163;52.306;5.634;2023-10-19T08:37:02;2.60;;;2.40;;
60318;SDS011;46163;52.306;5.634;2023-10-19T08:39:29;2.95;;;2.33;;
60318;SDS011;46163;52.306;5.634;2023-10-19T08:42:01;4.25;;;2.30;;
60318;SDS011;46163;52.306;5.634;2023-10-19T08:44:30;4.97;;;2.92;;
60318;SDS011;46163;52.306;5.634;2023-10-19T08:47:00;3.22;;;2.63;;
60318;SDS011;46163;52.306;5.634;2023-10-19T08:49:26;3.67;;;2.88;;
60318;SDS011;46163;52.306;5.634;2023-10-19T08:51:52;4.32;;;2.70;;
60318;SDS011;46163;52.306;5.634;2023-10-19T08:54:19;4.28;;;2.05;;
60318;SDS011;46163;52.306;5.634;2023-10-19T08:56:45;5.13;;;2.00;;
60318;SDS011;46163;52.306;5.634;2023-10-19T08:59:12;3.75;;;2.30;;
60318;SDS011;46163;52.306;5.634;2023-10-19T09:01:40;3.85;;;2.40;;
60318;SDS011;46163;52.306;5.634;2023-10-19T09:04:09;2.85;;;2.38;;
60318;SDS011;46163;52.306;5.634;2023-10-19T09:06:44;5.43;;;2.10;;
60318;SDS011;46163;52.306;5.634;2023-10-19T09:09:13;6.70;;;2.35;;
60318;SDS011;46163;52.306;5.634;2023-10-19T09:11:48;6.72;;;2.90;;
60318;SDS011;46163;52.306;5.634;2023-10-19T09:14:14;5.40;;;2.67;;
60318;SDS011;46163;52.306;5.634;2023-10-19T09:16:55;8.00;;;2.55;;
60318;SDS011;46163;52.306;5.634;2023-10-19T09:22:16;2.53;;;2.20;;
60318;SDS011;46163;52.306;5.634;2023-10-19T09:24:47;2.33;;;2.03;;
60318;SDS011;46163;52.306;5.634;2023-10-19T09:27:16;6.38;;;2.15;;
60318;SDS011;46163;52.306;5.634;2023-10-19T09:29:42;3.50;;;2.25;;
60318;SDS011;46163;52.306;5.634;2023-10-19T09:32:08;7.97;;;2.70;;
60318;SDS011;46163;52.306;5.634;2023-10-19T09:34:35;5.60;;;2.50;;
60318;SDS011;46163;52.306;5.634;2023-10-19T09:37:01;3.72;;;2.42;;
60318;SDS011;46163;52.306;5.634;2023-10-19T09:39:28;3.92;;;2.47;;
60318;SDS011;46163;52.306;5.634;2023-10-19T09:42:07;3.25;;;2.22;;
60318;SDS011;46163;52.306;5.634;2023-10-19T09:44:44;4.20;;;2.50;;
60318;SDS011;46163;52.306;5.634;2023-10-19T09:47:20;4.53;;;2.10;;
60318;SDS011;46163;52.306;5.634;2023-10-19T09:49:58;2.95;;;2.33;;
60318;SDS011;46163;52.306;5.634;2023-10-19T09:54:54;7.10;;;2.53;;
60318;SDS011;46163;52.306;5.634;2023-10-19T09:57:27;4.00;;;2.13;;
60318;SDS011;46163;52.306;5.634;2023-10-19T10:00:04;11.68;;;2.10;;
60318;SDS011;46163;52.306;5.634;2023-10-19T10:02:42;7.32;;;2.22;;
60318;SDS011;46163;52.306;5.634;2023-10-19T10:11:20;2.55;;;1.77;;
60318;SDS011;46163;52.306;5.634;2023-10-19T10:13:55;4.82;;;1.80;;
60318;SDS011;46163;52.306;5.634;2023-10-19T10:16:31;4.15;;;1.90;;
60318;SDS011;46163;52.306;5.634;2023-10-19T10:18:59;3.53;;;2.20;;
60318;SDS011;46163;52.306;5.634;2023-10-19T10:21:25;7.18;;;2.10;;
60318;SDS011;46163;52.306;5.634;2023-10-19T10:23:52;4.78;;;2.15;;
60318;SDS011;46163;52.306;5.634;2023-10-19T10:26:20;4.13;;;1.92;;
60318;SDS011;46163;52.306;5.634;2023-10-19T10:31:40;4.97;;;1.70;;
60318;SDS011;46163;52.306;5.634;2023-10-19T10:34:08;3.33;;;1.83;;
60318;SDS011;46163;52.306;5.634;2023-10-19T10:39:27;8.57;;;1.92;;
60318;SDS011;46163;52.306;5.634;2023-10-19T10:44:21;4.03;;;2.08;;
60318;SDS011;46163;52.306;5.634;2023-10-19T10:47:01;4.18;;;1.88;;
60318;SDS011;46163;52.306;5.634;2023-10-19T10:49:26;1.98;;;1.50;;
60318;SDS011;46163;52.306;5.634;2023-10-19T10:51:53;2.95;;;2.10;;
60318;SDS011;46163;52.306;5.634;2023-10-19T10:54:22;4.72;;;2.00;;
60318;SDS011;46163;52.306;5.634;2023-10-19T10:56:49;9.15;;;1.98;;
60318;SDS011;46163;52.306;5.634;2023-10-19T10:59:15;3.97;;;1.90;;
60318;SDS011;46163;52.306;5.634;2023-10-19T11:01:40;4.00;;;2.13;;
60318;SDS011;46163;52.306;5.634;2023-10-19T11:04:11;3.13;;;1.92;;
60318;SDS011;46163;52.306;5.634;2023-10-19T11:06:53;3.60;;;2.20;;
60318;SDS011;46163;52.306;5.634;2023-10-19T11:09:22;5.05;;;2.50;;
60318;SDS011;46163;52.306;5.634;2023-10-19T11:11:49;4.85;;;2.22;;
60318;SDS011;46163;52.306;5.634;2023-10-19T11:14:15;4.82;;;2.00;;
60318;SDS011;46163;52.306;5.634;2023-10-19T11:16:40;4.35;;;2.08;;
60318;SDS011;46163;52.306;5.634;2023-10-19T11:19:08;2.85;;;1.90;;
60318;SDS011;46163;52.306;5.634;2023-10-19T11:21:35;10.10;;;2.50;;
60318;SDS011;46163;52.306;5.634;2023-10-19T11:24:01;4.13;;;2.08;;
60318;SDS011;46163;52.306;5.634;2023-10-19T11:26:27;3.63;;;1.90;;
60318;SDS011;46163;52.306;5.634;2023-10-19T11:29:00;4.20;;;1.83;;
60318;SDS011;46163;52.306;5.634;2023-10-19T11:31:28;8.23;;;2.05;;
60318;SDS011;46163;52.306;5.634;2023-10-19T11:34:02;3.78;;;2.42;;
60318;SDS011;46163;52.306;5.634;2023-10-19T11:36:29;3.67;;;1.80;;
60318;SDS011;46163;52.306;5.634;2023-10-19T11:38:55;6.60;;;2.08;;
60318;SDS011;46163;52.306;5.634;2023-10-19T11:41:21;5.05;;;1.85;;
60318;SDS011;46163;52.306;5.634;2023-10-19T11:43:48;6.63;;;2.00;;
60318;SDS011;46163;52.306;5.634;2023-10-19T11:46:15;4.57;;;1.90;;
60318;SDS011;46163;52.306;5.634;2023-10-19T11:48:43;8.48;;;2.05;;
60318;SDS011;46163;52.306;5.634;2023-10-19T11:51:09;7.00;;;2.42;;
60318;SDS011;46163;52.306;5.634;2023-10-19T11:53:40;4.72;;;2.05;;
60318;SDS011;46163;52.306;5.634;2023-10-19T11:56:08;4.95;;;1.85;;
60318;SDS011;46163;52.306;5.634;2023-10-19T11:58:37;6.28;;;2.13;;
60318;SDS011;46163;52.306;5.634;2023-10-19T12:01:06;3.17;;;1.60;;
60318;SDS011;46163;52.306;5.634;2023-10-19T12:03:40;6.95;;;1.75;;
60318;SDS011;46163;52.306;5.634;2023-10-19T12:06:07;7.30;;;2.30;;
60318;SDS011;46163;52.306;5.634;2023-10-19T12:08:33;13.18;;;2.50;;
60318;SDS011;46163;52.306;5.634;2023-10-19T12:11:01;5.03;;;2.28;;
60318;SDS011;46163;52.306;5.634;2023-10-19T12:13:28;9.88;;;2.25;;
60318;SDS011;46163;52.306;5.634;2023-10-19T12:15:54;3.15;;;2.08;;
60318;SDS011;46163;52.306;5.634;2023-10-19T12:18:20;8.93;;;2.72;;
60318;SDS011;46163;52.306;5.634;2023-10-19T12:20:46;9.05;;;2.15;;
60318;SDS011;46163;52.306;5.634;2023-10-19T12:23:13;3.90;;;2.10;;
60318;SDS011;46163;52.306;5.634;2023-10-19T12:25:39;4.38;;;1.73;;
60318;SDS011;46163;52.306;5.634;2023-10-19T12:30:33;5.38;;;1.85;;
60318;SDS011;46163;52.306;5.634;2023-10-19T12:33:05;3.42;;;2.00;;
60318;SDS011;46163;52.306;5.634;2023-10-19T12:35:37;4.72;;;1.85;;
60318;SDS011;46163;52.306;5.634;2023-10-19T12:38:11;3.90;;;2.08;;
60318;SDS011;46163;52.306;5.634;2023-10-19T12:40:47;9.15;;;3.13;;
60318;SDS011;46163;52.306;5.634;2023-10-19T12:43:14;4.70;;;2.78;;
60318;SDS011;46163;52.306;5.634;2023-10-19T12:45:43;6.78;;;2.47;;
60318;SDS011;46163;52.306;5.634;2023-10-19T12:48:15;9.13;;;2.15;;
60318;SDS011;46163;52.306;5.634;2023-10-19T12:50:42;6.03;;;2.00;;
60318;SDS011;46163;52.306;5.634;2023-10-19T12:53:08;3.90;;;2.05;;
60318;SDS011;46163;52.306;5.634;2023-10-19T12:55:34;3.88;;;1.92;;
60318;SDS011;46163;52.306;5.634;2023-10-19T12:58:06;4.82;;;2.00;;
60318;SDS011;46163;52.306;5.634;2023-10-19T13:00:33;5.75;;;1.83;;
60318;SDS011;46163;52.306;5.634;2023-10-19T13:03:07;4.40;;;2.08;;
60318;SDS011;46163;52.306;5.634;2023-10-19T13:05:33;6.35;;;1.92;;
60318;SDS011;46163;52.306;5.634;2023-10-19T13:07:59;5.07;;;2.10;;
60318;SDS011;46163;52.306;5.634;2023-10-19T13:10:29;4.53;;;2.00;;
60318;SDS011;46163;52.306;5.634;2023-10-19T13:13:04;7.72;;;1.80;;
60318;SDS011;46163;52.306;5.634;2023-10-19T13:15:31;5.13;;;2.00;;
60318;SDS011;46163;52.306;5.634;2023-10-19T13:17:59;4.65;;;2.20;;
60318;SDS011;46163;52.306;5.634;2023-10-19T13:20:26;3.40;;;2.03;;
60318;SDS011;46163;52.306;5.634;2023-10-19T13:22:53;6.65;;;1.95;;
60318;SDS011;46163;52.306;5.634;2023-10-19T13:25:21;11.20;;;2.10;;
60318;SDS011;46163;52.306;5.634;2023-10-19T13:28:05;3.95;;;1.92;;
60318;SDS011;46163;52.306;5.634;2023-10-19T13:30:37;5.97;;;2.08;;
60318;SDS011;46163;52.306;5.634;2023-10-19T13:33:07;3.70;;;1.92;;
60318;SDS011;46163;52.306;5.634;2023-10-19T13:35:36;7.60;;;1.95;;
60318;SDS011;46163;52.306;5.634;2023-10-19T13:38:05;9.05;;;2.00;;
60318;SDS011;46163;52.306;5.634;2023-10-19T13:40:36;5.60;;;2.08;;
60318;SDS011;46163;52.306;5.634;2023-10-19T13:43:05;5.85;;;2.47;;
60318;SDS011;46163;52.306;5.634;2023-10-19T13:45:33;4.40;;;2.00;;
60318;SDS011;46163;52.306;5.634;2023-10-19T13:48:03;3.40;;;1.70;;
60318;SDS011;46163;52.306;5.634;2023-10-19T13:50:30;2.58;;;1.73;;
60318;SDS011;46163;52.306;5.634;2023-10-19T13:52:56;2.47;;;1.50;;
60318;SDS011;46163;52.306;5.634;2023-10-19T13:55:22;4.55;;;1.65;;
60318;SDS011;46163;52.306;5.634;2023-10-19T13:57:49;2.45;;;1.67;;
60318;SDS011;46163;52.306;5.634;2023-10-19T14:00:15;3.60;;;1.75;;
60318;SDS011;46163;52.306;5.634;2023-10-19T14:03:05;5.05;;;2.17;;
60318;SDS011;46163;52.306;5.634;2023-10-19T14:05:41;5.57;;;1.95;;
60318;SDS011;46163;52.306;5.634;2023-10-19T14:08:13;8.77;;;1.88;;
60318;SDS011;46163;52.306;5.634;2023-10-19T14:10:39;6.78;;;2.30;;
60318;SDS011;46163;52.306;5.634;2023-10-19T14:13:10;7.97;;;2.60;;
60318;SDS011;46163;52.306;5.634;2023-10-19T14:15:43;4.80;;;2.08;;
60318;SDS011;46163;52.306;5.634;2023-10-19T14:18:09;6.03;;;2.35;;
60318;SDS011;46163;52.306;5.634;2023-10-19T14:20:36;6.50;;;2.15;;
60318;SDS011;46163;52.306;5.634;2023-10-19T14:23:04;6.60;;;2.60;;
60318;SDS011;46163;52.306;5.634;2023-10-19T14:25:30;5.35;;;2.13;;
60318;SDS011;46163;52.306;5.634;2023-10-19T14:27:57;4.93;;;2.30;;
60318;SDS011;46163;52.306;5.634;2023-10-19T14:30:25;9.98;;;2.50;;
60318;SDS011;46163;52.306;5.634;2023-10-19T14:32:54;6.90;;;2.10;;
60318;SDS011;46163;52.306;5.634;2023-10-19T14:35:20;8.43;;;2.95;;
60318;SDS011;46163;52.306;5.634;2023-10-19T14:37:48;3.88;;;2.45;;
60318;SDS011;46163;52.306;5.634;2023-10-19T14:40:19;2.47;;;1.98;;
60318;SDS011;46163;52.306;5.634;2023-10-19T14:42:51;6.55;;;2.45;;
60318;SDS011;46163;52.306;5.634;2023-10-19T14:45:21;4.82;;;2.33;;
60318;SDS011;46163;52.306;5.634;2023-10-19T14:47:51;6.55;;;2.72;;
60318;SDS011;46163;52.306;5.634;2023-10-19T14:50:17;3.17;;;2.15;;
60318;SDS011;46163;52.306;5.634;2023-10-19T14:52:45;5.68;;;2.55;;
60318;SDS011;46163;52.306;5.634;2023-10-19T14:55:12;4.93;;;2.50;;
60318;SDS011;46163;52.306;5.634;2023-10-19T14:57:42;5.68;;;2.30;;
60318;SDS011;46163;52.306;5.634;2023-10-19T15:00:11;6.15;;;2.38;;
60318;SDS011;46163;52.306;5.634;2023-10-19T15:02:46;5.10;;;2.30;;
60318;SDS011;46163;52.306;5.634;2023-10-19T15:05:12;6.55;;;3.25;;
60318;SDS011;46163;52.306;5.634;2023-10-19T15:07:46;6.28;;;4.45;;
60318;SDS011;46163;52.306;5.634;2023-10-19T15:10:26;7.70;;;5.45;;
60318;SDS011;46163;52.306;5.634;2023-10-19T15:12:57;4.97;;;2.53;;
60318;SDS011;46163;52.306;5.634;2023-10-19T15:15:26;5.60;;;2.72;;
60318;SDS011;46163;52.306;5.634;2023-10-19T15:17:53;13.75;;;3.30;;
60318;SDS011;46163;52.306;5.634;2023-10-19T15:20:21;5.93;;;4.72;;
60318;SDS011;46163;52.306;5.634;2023-10-19T15:22:50;9.27;;;7.20;;
60318;SDS011;46163;52.306;5.634;2023-10-19T15:25:16;4.47;;;2.95;;
60318;SDS011;46163;52.306;5.634;2023-10-19T15:27:46;3.63;;;2.80;;
60318;SDS011;46163;52.306;5.634;2023-10-19T15:30:15;8.23;;;2.97;;
60318;SDS011;46163;52.306;5.634;2023-10-19T15:32:43;9.20;;;2.83;;
60318;SDS011;46163;52.306;5.634;2023-10-19T15:35:10;5.45;;;2.90;;
60318;SDS011;46163;52.306;5.634;2023-10-19T15:37:39;4.53;;;2.60;;